sensor_id;sensor_type;location;lat;lon;timestamp;pressure;altitude;pressure_sealevel;temperature;humidity
68193;BME280;55012;47.562;18.414;2023-04-27T00:01:58;99422.50;;;4.08;100.00
68193;BME280;55012;47.562;18.414;2023-04-27T00:04:24;99418.34;;;4.02;100.00
68193;BME280;55012;47.562;18.414;2023-04-27T00:06:49;99411.50;;;3.95;100.00
68193;BME280;55012;47.562;18.414;2023-04-27T00:09:15;99408.63;;;3.92;100.00
68193;BME280;55012;47.562;18.414;2023-04-27T00:11:41;99410.03;;;3.89;100.00
68193;BME280;55012;47.562;18.414;2023-04-27T00:14:06;99393.16;;;3.89;100.00
68193;BME280;55012;47.562;18.414;2023-04-27T00:16:32;99389.97;;;3.87;100.00
68193;BME280;55012;47.562;18.414;2023-04-27T00:18:57;99380.66;;;3.84;100.00
68193;BME280;55012;47.562;18.414;2023-04-27T00:21:23;99373.25;;;3.81;100.00
68193;BME280;55012;47.562;18.414;2023-04-27T00:23:48;99378.38;;;3.78;100.00
68193;BME280;55012;47.562;18.414;2023-04-27T00:26:14;99365.78;;;3.78;100.00
68193;BME280;55012;47.562;18.414;2023-04-27T00:28:39;99369.38;;;3.74;100.00
68193;BME280;55012;47.562;18.414;2023-04-27T00:31:05;99354.19;;;3.69;100.00
68193;BME280;55012;47.562;18.414;2023-04-27T00:33:30;99349.44;;;3.66;100.00
68193;BME280;55012;47.562;18.414;2023-04-27T00:35:59;99351.91;;;3.62;100.00
68193;BME280;55012;47.562;18.414;2023-04-27T00:38:26;99329.03;;;3.56;100.00
68193;BME280;55012;47.562;18.414;2023-04-27T00:41:02;99331.97;;;3.55;100.00
68193;BME280;55012;47.562;18.414;2023-04-27T00:43:28;99323.34;;;3.44;100.00
68193;BME280;55012;47.562;18.414;2023-04-27T00:45:53;99319.00;;;3.34;100.00
68193;BME280;55012;47.562;18.414;2023-04-27T00:48:19;99301.75;;;3.27;100.00
68193;BME280;55012;47.562;18.414;2023-04-27T00:50:44;99303.13;;;3.24;100.00
68193;BME280;55012;47.562;18.414;2023-04-27T00:53:10;99289.66;;;3.16;100.00
68193;BME280;55012;47.562;18.414;2023-04-27T00:55:36;99272.91;;;3.10;100.00
68193;BME280;55012;47.562;18.414;2023-04-27T00:58:01;99254.28;;;3.05;100.00
68193;BME280;55012;47.562;18.414;2023-04-27T01:00:27;99231.13;;;3.00;100.00
68193;BME280;55012;47.562;18.414;2023-04-27T01:02:54;99219.94;;;2.98;100.00
68193;BME280;55012;47.562;18.414;2023-04-27T01:05:19;99203.19;;;2.93;100.00
68193;BME280;55012;47.562;18.414;2023-04-27T01:07:46;99190.44;;;2.90;100.00
68193;BME280;55012;47.562;18.414;2023-04-27T01:10:11;99180.63;;;2.85;100.00
68193;BME280;55012;47.562;18.414;2023-04-27T01:12:37;99167.16;;;2.76;100.00
68193;BME280;55012;47.562;18.414;2023-04-27T01:15:03;99153.00;;;2.76;100.00
68193;BME280;55012;47.562;18.414;2023-04-27T01:17:28;99136.50;;;2.74;100.00
68193;BME280;55012;47.562;18.414;2023-04-27T01:19:54;99126.59;;;2.74;100.00
68193;BME280;55012;47.562;18.414;2023-04-27T01:22:21;99118.84;;;2.73;100.00
68193;BME280;55012;47.562;18.414;2023-04-27T01:24:46;99098.59;;;2.72;100.00
68193;BME280;55012;47.562;18.414;2023-04-27T01:27:12;99086.31;;;2.71;100.00
68193;BME280;55012;47.562;18.414;2023-04-27T01:29:38;99076.41;;;2.71;100.00
68193;BME280;55012;47.562;18.414;2023-04-27T01:32:04;99061.50;;;2.70;100.00
68193;BME280;55012;47.562;18.414;2023-04-27T01:34:30;99048.75;;;2.67;100.00
68193;BME280;55012;47.562;18.414;2023-04-27T01:36:55;99038.34;;;2.66;100.00
68193;BME280;55012;47.562;18.414;2023-04-27T01:39:21;99027.94;;;2.64;100.00
68193;BME280;55012;47.562;18.414;2023-04-27T01:41:47;99015.19;;;2.61;100.00
68193;BME280;55012;47.562;18.414;2023-04-27T01:44:12;98995.22;;;2.59;100.00
68193;BME280;55012;47.562;18.414;2023-04-27T01:46:38;98980.22;;;2.49;100.00
68193;BME280;55012;47.562;18.414;2023-04-27T01:49:04;98975.06;;;2.52;100.00
68193;BME280;55012;47.562;18.414;2023-04-27T01:51:30;98956.19;;;2.49;100.00
68193;BME280;55012;47.562;18.414;2023-04-27T01:53:57;98954.41;;;2.44;100.00
68193;BME280;55012;47.562;18.414;2023-04-27T01:56:22;98947.88;;;2.37;100.00
68193;BME280;55012;47.562;18.414;2023-04-27T01:58:48;98947.78;;;2.28;100.00
68193;BME280;55012;47.562;18.414;2023-04-27T02:01:13;98941.56;;;2.19;100.00
68193;BME280;55012;47.562;18.414;2023-04-27T02:03:39;98933.44;;;2.10;100.00
68193;BME280;55012;47.562;18.414;2023-04-27T02:06:05;98923.38;;;2.07;100.00
68193;BME280;55012;47.562;18.414;2023-04-27T02:08:30;98912.97;;;2.06;100.00
68193;BME280;55012;47.562;18.414;2023-04-27T02:10:56;98920.31;;;2.00;100.00
68193;BME280;55012;47.562;18.414;2023-04-27T02:13:21;98900.44;;;1.92;100.00
68193;BME280;55012;47.562;18.414;2023-04-27T02:15:47;98846.69;;;1.85;100.00
68193;BME280;55012;47.562;18.414;2023-04-27T02:18:12;98841.06;;;1.73;100.00
68193;BME280;55012;47.562;18.414;2023-04-27T02:20:39;98835.63;;;1.64;100.00
68193;BME280;55012;47.562;18.414;2023-04-27T02:23:05;98807.19;;;1.60;100.00
68193;BME280;55012;47.562;18.414;2023-04-27T02:25:31;98803.13;;;1.62;100.00
68193;BME280;55012;47.562;18.414;2023-04-27T02:27:56;98786.84;;;1.64;100.00
68193;BME280;55012;47.562;18.414;2023-04-27T02:30:22;98776.38;;;1.67;100.00
68193;BME280;55012;47.562;18.414;2023-04-27T02:32:47;98769.84;;;1.74;100.00
68193;BME280;55012;47.562;18.414;2023-04-27T02:35:13;98765.50;;;1.78;100.00
68193;BME280;55012;47.562;18.414;2023-04-27T02:37:38;98763.53;;;1.83;100.00
68193;BME280;55012;47.562;18.414;2023-04-27T02:40:04;98755.63;;;1.92;100.00
68193;BME280;55012;47.562;18.414;2023-04-27T02:42:33;98777.91;;;1.96;100.00
68193;BME280;55012;47.562;18.414;2023-04-27T02:44:59;98779.09;;;2.04;100.00
68193;BME280;55012;47.562;18.414;2023-04-27T02:47:24;98779.59;;;2.06;100.00
68193;BME280;55012;47.562;18.414;2023-04-27T02:49:50;98791.03;;;2.06;100.00
68193;BME280;55012;47.562;18.414;2023-04-27T02:52:15;98793.91;;;2.10;100.00
68193;BME280;55012;47.562;18.414;2023-04-27T02:54:41;98808.53;;;2.12;100.00
68193;BME280;55012;47.562;18.414;2023-04-27T02:57:06;98805.84;;;2.12;100.00
68193;BME280;55012;47.562;18.414;2023-04-27T02:59:31;98808.13;;;2.19;100.00
68193;BME280;55012;47.562;18.414;2023-04-27T03:01:57;98813.94;;;2.21;100.00
68193;BME280;55012;47.562;18.414;2023-04-27T03:04:23;98824.03;;;2.24;100.00
68193;BME280;55012;47.562;18.414;2023-04-27T03:06:48;98829.06;;;2.25;100.00
68193;BME280;55012;47.562;18.414;2023-04-27T03:09:13;98842.72;;;2.24;100.00
68193;BME280;55012;47.562;18.414;2023-04-27T03:11:39;98849.94;;;2.23;100.00
68193;BME280;55012;47.562;18.414;2023-04-27T03:14:05;98857.44;;;2.21;100.00
68193;BME280;55012;47.562;18.414;2023-04-27T03:16:31;98868.72;;;2.18;100.00
68193;BME280;55012;47.562;18.414;2023-04-27T03:18:56;98864.88;;;2.11;100.00
68193;BME280;55012;47.562;18.414;2023-04-27T03:21:22;98878.69;;;2.13;100.00
68193;BME280;55012;47.562;18.414;2023-04-27T03:23:47;98873.75;;;2.06;100.00
68193;BME280;55012;47.562;18.414;2023-04-27T03:26:13;98869.41;;;1.96;100.00
68193;BME280;55012;47.562;18.414;2023-04-27T03:28:39;98869.22;;;1.93;100.00
68193;BME280;55012;47.562;18.414;2023-04-27T03:31:06;98863.09;;;1.92;100.00
68193;BME280;55012;47.562;18.414;2023-04-27T03:33:32;98857.75;;;1.92;100.00
68193;BME280;55012;47.562;18.414;2023-04-27T03:35:58;98861.53;;;1.91;100.00
68193;BME280;55012;47.562;18.414;2023-04-27T03:38:25;98860.22;;;1.89;100.00
68193;BME280;55012;47.562;18.414;2023-04-27T03:40:51;98861.41;;;1.83;100.00
68193;BME280;55012;47.562;18.414;2023-04-27T03:43:18;98861.69;;;1.81;100.00
68193;BME280;55012;47.562;18.414;2023-04-27T03:45:43;98866.06;;;1.77;100.00
68193;BME280;55012;47.562;18.414;2023-04-27T03:48:09;98859.72;;;1.73;100.00
68193;BME280;55012;47.562;18.414;2023-04-27T03:50:35;98864.38;;;1.67;100.00
68193;BME280;55012;47.562;18.414;2023-04-27T03:53:00;98871.59;;;1.67;100.00
68193;BME280;55012;47.562;18.414;2023-04-27T03:55:26;98874.53;;;1.65;100.00
68193;BME280;55012;47.562;18.414;2023-04-27T03:57:51;98876.69;;;1.63;100.00
68193;BME280;55012;47.562;18.414;2023-04-27T04:00:17;98879.38;;;1.63;100.00
68193;BME280;55012;47.562;18.414;2023-04-27T04:02:43;98875.50;;;1.56;100.00
68193;BME280;55012;47.562;18.414;2023-04-27T04:05:09;98886.38;;;1.59;100.00
68193;BME280;55012;47.562;18.414;2023-04-27T04:07:36;98889.13;;;1.54;100.00
68193;BME280;55012;47.562;18.414;2023-04-27T04:10:02;98893.19;;;1.52;100.00
68193;BME280;55012;47.562;18.414;2023-04-27T04:12:29;98890.09;;;1.45;100.00
68193;BME280;55012;47.562;18.414;2023-04-27T04:14:54;98883.94;;;1.30;100.00
68193;BME280;55012;47.562;18.414;2023-04-27T04:17:20;98861.41;;;1.23;100.00
68193;BME280;55012;47.562;18.414;2023-04-27T04:19:45;98834.19;;;1.26;100.00
68193;BME280;55012;47.562;18.414;2023-04-27T04:22:11;98820.59;;;1.27;100.00
68193;BME280;55012;47.562;18.414;2023-04-27T04:24:36;98806.88;;;1.34;100.00
68193;BME280;55012;47.562;18.414;2023-04-27T04:27:04;98806.47;;;1.40;100.00
68193;BME280;55012;47.562;18.414;2023-04-27T04:29:30;98791.19;;;1.46;100.00
68193;BME280;55012;47.562;18.414;2023-04-27T04:31:55;98798.50;;;1.54;100.00
68193;BME280;55012;47.562;18.414;2023-04-27T04:34:21;98795.13;;;1.62;100.00
68193;BME280;55012;47.562;18.414;2023-04-27T04:36:47;98792.25;;;1.73;100.00
68193;BME280;55012;47.562;18.414;2023-04-27T04:39:16;98792.34;;;1.81;100.00
68193;BME280;55012;47.562;18.414;2023-04-27T04:41:45;98799.38;;;1.91;100.00
68193;BME280;55012;47.562;18.414;2023-04-27T04:44:10;98808.06;;;1.96;100.00
68193;BME280;55012;47.562;18.414;2023-04-27T04:46:35;98809.63;;;1.97;100.00
68193;BME280;55012;47.562;18.414;2023-04-27T04:49:01;98818.63;;;2.02;100.00
68193;BME280;55012;47.562;18.414;2023-04-27T04:51:27;98823.34;;;2.05;100.00
68193;BME280;55012;47.562;18.414;2023-04-27T04:53:52;98840.53;;;2.12;100.00
68193;BME280;55012;47.562;18.414;2023-04-27T04:56:18;98850.81;;;2.19;100.00
68193;BME280;55012;47.562;18.414;2023-04-27T04:58:43;98853.09;;;2.25;100.00
68193;BME280;55012;47.562;18.414;2023-04-27T05:01:09;98873.53;;;2.30;100.00
68193;BME280;55012;47.562;18.414;2023-04-27T05:03:35;98890.25;;;2.36;100.00
68193;BME280;55012;47.562;18.414;2023-04-27T05:06:00;98914.03;;;2.46;100.00
68193;BME280;55012;47.562;18.414;2023-04-27T05:08:26;98926.38;;;2.56;100.00
68193;BME280;55012;47.562;18.414;2023-04-27T05:10:52;98940.34;;;2.66;100.00
68193;BME280;55012;47.562;18.414;2023-04-27T05:13:18;98954.06;;;2.73;100.00
68193;BME280;55012;47.562;18.414;2023-04-27T05:15:44;99009.16;;;2.83;100.00
68193;BME280;55012;47.562;18.414;2023-04-27T05:18:10;99034.66;;;2.89;100.00
68193;BME280;55012;47.562;18.414;2023-04-27T05:20:36;99034.56;;;2.94;100.00
68193;BME280;55012;47.562;18.414;2023-04-27T05:23:01;99050.78;;;2.98;100.00
68193;BME280;55012;47.562;18.414;2023-04-27T05:25:31;99061.19;;;2.99;100.00
68193;BME280;55012;47.562;18.414;2023-04-27T05:27:57;99070.78;;;3.00;100.00
68193;BME280;55012;47.562;18.414;2023-04-27T05:30:22;99085.25;;;2.99;100.00
68193;BME280;55012;47.562;18.414;2023-04-27T05:32:48;99099.56;;;3.03;100.00
68193;BME280;55012;47.562;18.414;2023-04-27T05:35:13;99101.16;;;3.04;100.00
68193;BME280;55012;47.562;18.414;2023-04-27T05:37:39;99121.94;;;3.21;100.00
68193;BME280;55012;47.562;18.414;2023-04-27T05:40:05;99127.19;;;3.26;100.00
68193;BME280;55012;47.562;18.414;2023-04-27T05:42:33;99136.88;;;3.36;100.00
68193;BME280;55012;47.562;18.414;2023-04-27T05:44:58;99149.44;;;3.49;100.00
68193;BME280;55012;47.562;18.414;2023-04-27T05:47:24;99166.06;;;3.60;100.00
68193;BME280;55012;47.562;18.414;2023-04-27T05:49:51;99188.81;;;3.71;100.00
68193;BME280;55012;47.562;18.414;2023-04-27T05:52:20;99210.81;;;3.82;100.00
68193;BME280;55012;47.562;18.414;2023-04-27T05:54:48;99223.16;;;3.91;100.00
68193;BME280;55012;47.562;18.414;2023-04-27T05:57:15;99254.28;;;4.01;100.00
68193;BME280;55012;47.562;18.414;2023-04-27T05:59:41;99265.06;;;4.10;100.00
68193;BME280;55012;47.562;18.414;2023-04-27T06:02:07;99296.16;;;4.19;100.00
68193;BME280;55012;47.562;18.414;2023-04-27T06:04:33;99321.25;;;4.23;100.00
68193;BME280;55012;47.562;18.414;2023-04-27T06:06:59;99361.72;;;4.22;100.00
68193;BME280;55012;47.562;18.414;2023-04-27T06:09:24;99380.19;;;4.23;100.00
68193;BME280;55012;47.562;18.414;2023-04-27T06:11:50;99383.53;;;4.29;100.00
68193;BME280;55012;47.562;18.414;2023-04-27T06:14:16;99394.63;;;4.36;100.00
68193;BME280;55012;47.562;18.414;2023-04-27T06:16:42;99400.06;;;4.45;100.00
68193;BME280;55012;47.562;18.414;2023-04-27T06:19:07;99399.88;;;4.55;100.00
68193;BME280;55012;47.562;18.414;2023-04-27T06:21:34;99414.41;;;4.63;100.00
68193;BME280;55012;47.562;18.414;2023-04-27T06:23:59;99441.22;;;4.63;100.00
68193;BME280;55012;47.562;18.414;2023-04-27T06:26:26;99442.69;;;4.69;100.00
68193;BME280;55012;47.562;18.414;2023-04-27T06:28:51;99451.94;;;4.76;100.00
68193;BME280;55012;47.562;18.414;2023-04-27T06:31:17;99457.97;;;4.82;100.00
68193;BME280;55012;47.562;18.414;2023-04-27T06:33:43;99463.50;;;4.86;100.00
68193;BME280;55012;47.562;18.414;2023-04-27T06:36:08;99473.53;;;4.94;100.00
68193;BME280;55012;47.562;18.414;2023-04-27T06:38:34;99466.03;;;5.04;100.00
68193;BME280;55012;47.562;18.414;2023-04-27T06:40:59;99463.25;;;5.10;100.00
68193;BME280;55012;47.562;18.414;2023-04-27T06:43:25;99468.38;;;5.20;100.00
68193;BME280;55012;47.562;18.414;2023-04-27T06:45:50;99487.75;;;5.30;100.00
68193;BME280;55012;47.562;18.414;2023-04-27T06:48:16;99497.44;;;5.40;100.00
68193;BME280;55012;47.562;18.414;2023-04-27T06:50:42;99508.56;;;5.47;100.00
68193;BME280;55012;47.562;18.414;2023-04-27T06:53:08;99521.66;;;5.49;100.00
68193;BME280;55012;47.562;18.414;2023-04-27T06:55:34;99531.66;;;5.57;100.00
68193;BME280;55012;47.562;18.414;2023-04-27T06:57:59;99534.41;;;5.66;100.00
68193;BME280;55012;47.562;18.414;2023-04-27T07:00:25;99538.25;;;5.73;100.00
68193;BME280;55012;47.562;18.414;2023-04-27T07:02:51;99538.81;;;5.84;100.00
68193;BME280;55012;47.562;18.414;2023-04-27T07:05:17;99542.34;;;5.93;100.00
68193;BME280;55012;47.562;18.414;2023-04-27T07:07:42;99540.66;;;5.97;100.00
68193;BME280;55012;47.562;18.414;2023-04-27T07:10:08;99544.16;;;5.98;100.00
68193;BME280;55012;47.562;18.414;2023-04-27T07:12:35;99548.56;;;6.02;100.00
68193;BME280;55012;47.562;18.414;2023-04-27T07:15:00;99549.72;;;6.10;100.00
68193;BME280;55012;47.562;18.414;2023-04-27T07:17:28;99554.72;;;6.25;100.00
68193;BME280;55012;47.562;18.414;2023-04-27T07:19:53;99553.97;;;6.33;100.00
68193;BME280;55012;47.562;18.414;2023-04-27T07:22:19;99560.03;;;6.39;100.00
68193;BME280;55012;47.562;18.414;2023-04-27T07:24:44;99564.13;;;6.45;100.00
68193;BME280;55012;47.562;18.414;2023-04-27T07:27:10;99579.22;;;6.55;100.00
68193;BME280;55012;47.562;18.414;2023-04-27T07:29:35;99572.00;;;6.64;100.00
68193;BME280;55012;47.562;18.414;2023-04-27T07:32:05;99588.16;;;6.72;100.00
68193;BME280;55012;47.562;18.414;2023-04-27T07:34:30;99594.19;;;6.87;100.00
68193;BME280;55012;47.562;18.414;2023-04-27T07:36:56;99601.03;;;6.93;100.00
68193;BME280;55012;47.562;18.414;2023-04-27T07:39:21;99602.16;;;7.00;100.00
68193;BME280;55012;47.562;18.414;2023-04-27T07:41:48;99614.25;;;7.12;100.00
68193;BME280;55012;47.562;18.414;2023-04-27T07:44:16;99619.31;;;7.22;100.00
68193;BME280;55012;47.562;18.414;2023-04-27T07:46:41;99632.16;;;7.25;100.00
68193;BME280;55012;47.562;18.414;2023-04-27T07:49:08;99626.97;;;7.37;100.00
68193;BME280;55012;47.562;18.414;2023-04-27T07:51:33;99639.47;;;7.42;100.00
68193;BME280;55012;47.562;18.414;2023-04-27T07:53:59;99635.84;;;7.46;100.00
68193;BME280;55012;47.562;18.414;2023-04-27T07:56:26;99637.25;;;7.52;100.00
68193;BME280;55012;47.562;18.414;2023-04-27T07:58:51;99642.38;;;7.63;100.00
68193;BME280;55012;47.562;18.414;2023-04-27T08:01:17;99643.63;;;7.74;100.00
68193;BME280;55012;47.562;18.414;2023-04-27T08:03:42;99637.16;;;7.83;100.00
68193;BME280;55012;47.562;18.414;2023-04-27T08:06:08;99648.56;;;7.89;100.00
68193;BME280;55012;47.562;18.414;2023-04-27T08:08:33;99644.91;;;7.94;100.00
68193;BME280;55012;47.562;18.414;2023-04-27T08:10:59;99638.56;;;7.98;100.00
68193;BME280;55012;47.562;18.414;2023-04-27T08:13:24;99648.09;;;8.04;100.00
68193;BME280;55012;47.562;18.414;2023-04-27T08:15:50;99642.84;;;8.08;100.00
68193;BME280;55012;47.562;18.414;2023-04-27T08:18:15;99638.25;;;8.08;100.00
68193;BME280;55012;47.562;18.414;2023-04-27T08:20:42;99663.16;;;8.14;100.00
68193;BME280;55012;47.562;18.414;2023-04-27T08:23:08;99658.41;;;8.20;100.00
68193;BME280;55012;47.562;18.414;2023-04-27T08:25:36;99640.31;;;8.20;100.00
68193;BME280;55012;47.562;18.414;2023-04-27T08:28:02;99634.28;;;8.23;100.00
68193;BME280;55012;47.562;18.414;2023-04-27T08:30:27;99656.78;;;8.27;100.00
68193;BME280;55012;47.562;18.414;2023-04-27T08:32:52;99639.19;;;8.30;100.00
68193;BME280;55012;47.562;18.414;2023-04-27T08:35:19;99633.34;;;8.36;100.00
68193;BME280;55012;47.562;18.414;2023-04-27T08:37:45;99636.66;;;8.42;100.00
68193;BME280;55012;47.562;18.414;2023-04-27T08:40:11;99633.00;;;8.47;100.00
68193;BME280;55012;47.562;18.414;2023-04-27T08:42:37;99642.03;;;8.51;100.00
68193;BME280;55012;47.562;18.414;2023-04-27T08:45:06;99637.41;;;8.60;100.00
68193;BME280;55012;47.562;18.414;2023-04-27T08:47:32;99634.41;;;8.61;100.00
68193;BME280;55012;47.562;18.414;2023-04-27T08:49:58;99652.16;;;8.62;100.00
68193;BME280;55012;47.562;18.414;2023-04-27T08:52:23;99629.16;;;8.65;100.00
68193;BME280;55012;47.562;18.414;2023-04-27T08:54:49;99621.84;;;8.65;100.00
68193;BME280;55012;47.562;18.414;2023-04-27T08:57:15;99625.78;;;8.68;100.00
68193;BME280;55012;47.562;18.414;2023-04-27T08:59:41;99638.63;;;8.80;100.00
68193;BME280;55012;47.562;18.414;2023-04-27T09:02:19;99614.78;;;8.90;100.00
68193;BME280;55012;47.562;18.414;2023-04-27T09:04:45;99623.31;;;8.92;100.00
68193;BME280;55012;47.562;18.414;2023-04-27T09:07:15;99613.16;;;8.98;100.00
68193;BME280;55012;47.562;18.414;2023-04-27T09:09:42;99621.38;;;9.10;100.00
68193;BME280;55012;47.562;18.414;2023-04-27T09:12:20;99624.31;;;9.17;100.00
68193;BME280;55012;47.562;18.414;2023-04-27T09:14:59;99622.22;;;9.23;100.00
68193;BME280;55012;47.562;18.414;2023-04-27T09:17:27;99620.16;;;9.28;100.00
68193;BME280;55012;47.562;18.414;2023-04-27T09:20:08;99609.47;;;9.32;100.00
68193;BME280;55012;47.562;18.414;2023-04-27T09:22:50;99630.69;;;9.42;100.00
68193;BME280;55012;47.562;18.414;2023-04-27T09:25:28;99616.00;;;9.31;100.00
68193;BME280;55012;47.562;18.414;2023-04-27T09:27:54;99616.59;;;9.37;100.00
68193;BME280;55012;47.562;18.414;2023-04-27T09:30:23;99629.91;;;9.42;100.00
68193;BME280;55012;47.562;18.414;2023-04-27T09:32:58;99602.03;;;9.50;100.00
68193;BME280;55012;47.562;18.414;2023-04-27T09:35:31;99598.97;;;9.60;100.00
68193;BME280;55012;47.562;18.414;2023-04-27T09:37:57;99595.22;;;9.73;100.00
68193;BME280;55012;47.562;18.414;2023-04-27T09:40:25;99599.56;;;9.87;100.00
68193;BME280;55012;47.562;18.414;2023-04-27T09:42:53;99609.88;;;9.84;100.00
68193;BME280;55012;47.562;18.414;2023-04-27T09:45:19;99608.72;;;9.94;100.00
68193;BME280;55012;47.562;18.414;2023-04-27T09:47:45;99607.28;;;10.09;100.00
68193;BME280;55012;47.562;18.414;2023-04-27T09:50:12;99618.03;;;10.18;100.00
68193;BME280;55012;47.562;18.414;2023-04-27T09:52:38;99618.25;;;10.12;100.00
68193;BME280;55012;47.562;18.414;2023-04-27T09:55:07;99598.88;;;10.10;100.00
68193;BME280;55012;47.562;18.414;2023-04-27T09:57:39;99609.69;;;10.10;100.00
68193;BME280;55012;47.562;18.414;2023-04-27T10:00:09;99599.25;;;10.00;100.00
68193;BME280;55012;47.562;18.414;2023-04-27T10:02:59;99602.72;;;10.22;100.00
68193;BME280;55012;47.562;18.414;2023-04-27T10:08:28;99614.78;;;10.57;100.00
68193;BME280;55012;47.562;18.414;2023-04-27T10:10:53;99601.47;;;10.40;100.00
68193;BME280;55012;47.562;18.414;2023-04-27T10:13:24;99616.88;;;10.27;100.00
68193;BME280;55012;47.562;18.414;2023-04-27T10:15:50;99607.22;;;10.18;100.00
68193;BME280;55012;47.562;18.414;2023-04-27T10:18:29;99587.13;;;10.27;100.00
68193;BME280;55012;47.562;18.414;2023-04-27T10:20:55;99593.78;;;10.30;100.00
68193;BME280;55012;47.562;18.414;2023-04-27T10:23:22;99619.59;;;10.39;100.00
68193;BME280;55012;47.562;18.414;2023-04-27T10:25:48;99599.78;;;10.48;100.00
68193;BME280;55012;47.562;18.414;2023-04-27T10:28:15;99593.28;;;10.61;100.00
68193;BME280;55012;47.562;18.414;2023-04-27T10:30:44;99578.88;;;10.69;100.00
68193;BME280;55012;47.562;18.414;2023-04-27T10:33:18;99606.28;;;10.67;100.00
68193;BME280;55012;47.562;18.414;2023-04-27T10:35:57;99599.34;;;10.58;100.00
68193;BME280;55012;47.562;18.414;2023-04-27T10:38:29;99605.69;;;10.62;100.00
68193;BME280;55012;47.562;18.414;2023-04-27T10:40:58;99597.25;;;11.00;100.00
68193;BME280;55012;47.562;18.414;2023-04-27T10:43:28;99586.41;;;11.24;100.00
68193;BME280;55012;47.562;18.414;2023-04-27T10:45:54;99568.75;;;11.55;100.00
68193;BME280;55012;47.562;18.414;2023-04-27T10:48:20;99575.22;;;11.78;100.00
68193;BME280;55012;47.562;18.414;2023-04-27T10:50:46;99594.31;;;11.82;100.00
68193;BME280;55012;47.562;18.414;2023-04-27T10:53:12;99579.31;;;11.72;100.00
68193;BME280;55012;47.562;18.414;2023-04-27T10:55:41;99584.16;;;11.79;100.00
68193;BME280;55012;47.562;18.414;2023-04-27T10:58:06;99607.34;;;11.64;100.00
68193;BME280;55012;47.562;18.414;2023-04-27T11:00:37;99604.41;;;11.57;100.00
68193;BME280;55012;47.562;18.414;2023-04-27T11:03:17;99598.47;;;11.39;100.00
68193;BME280;55012;47.562;18.414;2023-04-27T11:05:45;99596.13;;;11.25;100.00
68193;BME280;55012;47.562;18.414;2023-04-27T11:08:15;99579.16;;;11.41;100.00
68193;BME280;55012;47.562;18.414;2023-04-27T11:10:49;99570.53;;;11.63;100.00
68193;BME280;55012;47.562;18.414;2023-04-27T11:13:17;99597.63;;;11.63;100.00
68193;BME280;55012;47.562;18.414;2023-04-27T11:15:52;99583.38;;;11.66;100.00
68193;BME280;55012;47.562;18.414;2023-04-27T11:18:25;99579.25;;;11.57;100.00
68193;BME280;55012;47.562;18.414;2023-04-27T11:20:53;99587.28;;;11.41;100.00
68193;BME280;55012;47.562;18.414;2023-04-27T11:23:26;99564.81;;;11.40;100.00
68193;BME280;55012;47.562;18.414;2023-04-27T11:25:53;99582.69;;;11.29;100.00
68193;BME280;55012;47.562;18.414;2023-04-27T11:28:19;99576.03;;;11.27;100.00
68193;BME280;55012;47.562;18.414;2023-04-27T11:30:45;99604.69;;;11.15;100.00
68193;BME280;55012;47.562;18.414;2023-04-27T11:33:11;99587.44;;;11.08;100.00
68193;BME280;55012;47.562;18.414;2023-04-27T11:35:37;99622.19;;;11.18;100.00
68193;BME280;55012;47.562;18.414;2023-04-27T11:38:03;99598.16;;;11.16;100.00
68193;BME280;55012;47.562;18.414;2023-04-27T11:40:29;99601.66;;;11.29;100.00
68193;BME280;55012;47.562;18.414;2023-04-27T11:42:59;99593.06;;;11.39;100.00
68193;BME280;55012;47.562;18.414;2023-04-27T11:45:28;99577.44;;;11.61;100.00
68193;BME280;55012;47.562;18.414;2023-04-27T11:47:57;99579.72;;;11.59;100.00
68193;BME280;55012;47.562;18.414;2023-04-27T11:50:23;99579.56;;;11.67;100.00
68193;BME280;55012;47.562;18.414;2023-04-27T11:52:51;99586.53;;;11.80;100.00
68193;BME280;55012;47.562;18.414;2023-04-27T11:55:19;99607.47;;;11.68;100.00
68193;BME280;55012;47.562;18.414;2023-04-27T11:57:45;99579.72;;;11.59;100.00
68193;BME280;55012;47.562;18.414;2023-04-27T12:00:11;99581.78;;;11.77;100.00
68193;BME280;55012;47.562;18.414;2023-04-27T12:02:39;99573.69;;;12.05;100.00
68193;BME280;55012;47.562;18.414;2023-04-27T12:05:06;99582.84;;;12.29;100.00
68193;BME280;55012;47.562;18.414;2023-04-27T12:07:32;99592.38;;;12.38;100.00
68193;BME280;55012;47.562;18.414;2023-04-27T12:09:58;99597.66;;;12.47;100.00
68193;BME280;55012;47.562;18.414;2023-04-27T12:12:25;99584.88;;;12.48;100.00
68193;BME280;55012;47.562;18.414;2023-04-27T12:14:51;99610.16;;;12.36;100.00
68193;BME280;55012;47.562;18.414;2023-04-27T12:17:17;99603.56;;;12.21;100.00
68193;BME280;55012;47.562;18.414;2023-04-27T12:19:43;99587.81;;;12.27;100.00
68193;BME280;55012;47.562;18.414;2023-04-27T12:22:10;99603.16;;;12.35;100.00
68193;BME280;55012;47.562;18.414;2023-04-27T12:24:36;99600.00;;;12.49;100.00
68193;BME280;55012;47.562;18.414;2023-04-27T12:27:02;99582.16;;;12.63;100.00
68193;BME280;55012;47.562;18.414;2023-04-27T12:29:28;99586.28;;;12.73;100.00
68193;BME280;55012;47.562;18.414;2023-04-27T12:31:53;99610.56;;;12.66;100.00
68193;BME280;55012;47.562;18.414;2023-04-27T12:34:19;99608.56;;;12.35;100.00
68193;BME280;55012;47.562;18.414;2023-04-27T12:36:44;99609.69;;;12.18;100.00
68193;BME280;55012;47.562;18.414;2023-04-27T12:39:20;99588.56;;;12.12;100.00
68193;BME280;55012;47.562;18.414;2023-04-27T12:41:48;99627.19;;;12.21;100.00
68193;BME280;55012;47.562;18.414;2023-04-27T12:44:16;99617.75;;;12.02;100.00
68193;BME280;55012;47.562;18.414;2023-04-27T12:46:42;99596.31;;;11.97;100.00
68193;BME280;55012;47.562;18.414;2023-04-27T12:49:09;99592.81;;;11.97;100.00